Time;durP1;ratioP1;P1;durP2;ratioP2;P2;SDS_P1;SDS_P2;PMS_P1;PMS_P2;Temp;Humidity;BMP_temperature;BMP_pressure;BME280_temperature;BME280_humidity;BME280_pressure;Samples;Min_cycle;Max_cycle;Signal;HPM_P1;HPM_P2
2020/12/11 00:01:46;;;;;;;26.13;16.50;;;1.40;99.90;;;-0.90;100.00;100099.03;5127194;27;20749;-81
2020/12/11 00:04:32;;;;;;;32.43;16.67;;;1.40;99.90;;;-0.87;100.00;100095.69;5123268;27;20227;-81
2020/12/11 00:07:17;;;;;;;24.53;16.27;;;1.30;99.90;;;-0.82;100.00;100095.72;5124067;27;20200;-80
2020/12/11 00:10:04;;;;;;;25.17;16.83;;;1.30;99.90;;;-0.80;100.00;100084.72;5119806;28;20217;-80
2020/12/11 00:12:51;;;;;;;27.17;17.10;;;1.30;99.90;;;-0.78;100.00;100083.06;5136355;27;20204;-80
2020/12/11 00:15:36;;;;;;;25.60;15.57;;;1.30;99.90;;;-0.81;100.00;100072.91;5128635;27;20272;-81
2020/12/11 00:18:21;;;;;;;25.43;15.30;;;1.30;99.90;;;-0.83;100.00;100068.63;5122246;27;20599;-81
2020/12/11 00:21:07;;;;;;;26.13;17.10;;;1.30;99.90;;;-0.84;100.00;100067.78;5124697;27;20224;-80
2020/12/11 00:23:52;;;;;;;25.97;16.93;;;1.30;99.90;;;-0.78;100.00;100047.53;5129450;27;20300;-81
2020/12/11 00:26:38;;;;;;;27.87;18.10;;;1.30;99.90;;;-0.82;100.00;100048.31;5146267;27;20230;-80
2020/12/11 00:29:23;;;;;;;26.93;17.63;;;1.30;99.90;;;-0.78;100.00;100032.28;5143017;28;20253;-80
2020/12/11 00:32:09;;;;;;;27.43;18.43;;;1.40;99.90;;;-0.72;100.00;100032.34;5135751;28;20230;-81
2020/12/11 00:34:54;;;;;;;27.10;18.20;;;1.30;99.90;;;-0.71;100.00;100031.50;5148914;28;20200;-80
2020/12/11 00:37:42;;;;;;;25.97;15.00;;;1.30;99.90;;;-0.74;100.00;100034.03;5144208;28;20223;-80
2020/12/11 00:40:27;;;;;;;25.00;15.43;;;1.40;99.90;;;-0.75;100.00;100024.69;5145550;28;20196;-80
2020/12/11 00:43:13;;;;;;;30.90;18.63;;;1.40;99.90;;;-0.76;100.00;100030.59;5146270;27;20227;-80
2020/12/11 00:45:59;;;;;;;28.33;17.23;;;1.40;99.90;;;-0.75;100.00;100037.38;5140684;27;20268;-80
2020/12/11 00:48:44;;;;;;;25.10;16.83;;;1.40;99.90;;;-0.74;100.00;100028.94;5135198;27;20221;-80
2020/12/11 00:51:30;;;;;;;27.13;16.60;;;1.40;99.90;;;-0.72;100.00;100022.16;5136687;28;20188;-79
2020/12/11 00:54:15;;;;;;;26.03;17.30;;;1.40;99.90;;;-0.74;100.00;100023.88;5145839;28;20712;-80
2020/12/11 00:57:00;;;;;;;29.00;17.80;;;1.40;99.90;;;-0.61;100.00;100023.94;5140249;28;20362;-79
2020/12/11 00:59:45;;;;;;;28.13;18.37;;;1.40;99.90;;;-0.61;100.00;100017.16;5147798;28;20203;-79
2020/12/11 01:02:32;;;;;;;26.67;16.80;;;1.40;99.90;;;-0.62;100.00;100009.53;5144993;28;20196;-80
2020/12/11 01:05:17;;;;;;;25.63;15.87;;;1.40;99.90;;;-0.64;100.00;100009.53;5136890;28;20669;-80
2020/12/11 01:08:03;;;;;;;25.23;15.47;;;1.40;99.90;;;-0.59;100.00;99997.72;5141824;28;20254;-79
2020/12/11 01:10:48;;;;;;;25.23;17.53;;;1.40;99.90;;;-0.61;100.00;99998.53;5137686;28;20265;-80
2020/12/11 01:13:34;;;;;;;26.93;16.23;;;1.40;99.90;;;-0.62;100.00;99990.09;5135242;27;20220;-80
2020/12/11 01:16:19;;;;;;;28.17;17.63;;;1.40;99.90;;;-0.57;100.00;99987.56;5133813;28;20293;-80
2020/12/11 01:19:05;;;;;;;27.60;15.87;;;1.40;99.90;;;-0.57;100.00;99996.03;5142325;28;20216;-80
2020/12/11 01:21:50;;;;;;;27.13;17.00;;;1.40;99.90;;;-0.61;100.00;99985.84;5136884;27;20224;-79
2020/12/11 01:24:35;;;;;;;25.43;15.13;;;1.50;99.90;;;-0.68;100.00;99986.63;5136556;28;20732;-81
2020/12/11 01:27:23;;;;;;;23.00;13.97;;;1.50;99.90;;;-0.66;100.00;99980.75;5137247;27;20219;-79
2020/12/11 01:30:08;;;;;;;27.00;15.53;;;1.50;99.90;;;-0.65;100.00;99986.66;5129134;27;20284;-79
2020/12/11 01:32:53;;;;;;;24.37;15.80;;;1.40;99.90;;;-0.73;100.00;99962.06;5131821;27;20228;-80
2020/12/11 01:35:39;;;;;;;26.80;15.70;;;1.50;99.90;;;-0.68;100.00;99963.78;5133387;27;20978;-79
2020/12/11 01:38:24;;;;;;;26.50;16.30;;;1.40;99.90;;;-0.60;100.00;99959.63;5131668;27;20327;-79
2020/12/11 01:41:10;;;;;;;23.07;14.07;;;1.40;99.90;;;-0.62;100.00;99936.75;5136519;27;20200;-80
2020/12/11 01:44:05;;;;;;;30.07;17.47;;;1.40;99.90;;;-0.66;100.00;99936.72;5123909;27;20224;-80
2020/12/11 01:46:50;;;;;;;27.83;19.17;;;1.40;99.90;;;-0.63;100.00;99942.66;5132035;27;20670;-80
2020/12/11 01:49:35;;;;;;;28.20;17.10;;;1.40;99.90;;;-0.59;100.00;99925.72;5131150;27;20204;-79
2020/12/11 01:52:21;;;;;;;26.83;17.70;;;1.40;99.90;;;-0.65;100.00;99913.00;5126196;27;20200;-80
2020/12/11 01:55:07;;;;;;;29.27;18.80;;;1.40;99.90;;;-0.68;100.00;99913.00;5132450;27;20341;-79
2020/12/11 01:58:00;;;;;;;27.83;17.70;;;1.40;99.90;;;-0.72;100.00;99899.44;5133363;27;20304;-80
2020/12/11 02:00:47;;;;;;;25.83;17.10;;;1.40;99.90;;;-0.74;100.00;99893.50;5131569;27;20200;-79
2020/12/11 02:03:33;;;;;;;29.57;17.10;;;1.40;99.90;;;-0.83;100.00;99879.06;5143161;27;20552;-80
2020/12/11 02:06:18;;;;;;;26.37;18.30;;;1.40;99.90;;;-0.85;100.00;99877.38;5128124;27;20289;-80
2020/12/11 02:09:05;;;;;;;30.60;17.67;;;1.40;99.90;;;-0.80;100.00;99873.16;5122094;27;20681;-82
2020/12/11 02:11:51;;;;;;;28.70;22.10;;;1.40;99.90;;;-0.81;100.00;99871.44;5136111;27;20224;-80
2020/12/11 02:14:37;;;;;;;30.00;16.43;;;1.40;99.90;;;-0.86;100.00;99866.34;5125711;27;20220;-81
2020/12/11 02:17:26;;;;;;;30.83;19.27;;;1.40;99.90;;;-0.89;100.00;99861.25;5123766;27;20250;-80
2020/12/11 02:20:11;;;;;;;27.30;19.60;;;1.30;99.90;;;-0.86;100.00;99851.13;5135584;27;20200;-81
2020/12/11 02:22:57;;;;;;;27.87;18.47;;;1.30;99.90;;;-0.84;100.00;99846.91;5127335;27;20711;-81
2020/12/11 02:25:43;;;;;;;26.17;18.20;;;1.30;99.90;;;-0.76;100.00;99850.31;5135605;27;20208;-82
2020/12/11 02:28:31;;;;;;;29.57;17.57;;;1.30;99.90;;;-0.86;100.00;99855.34;5122976;27;20203;-80
2020/12/11 02:31:17;;;;;;;28.80;16.77;;;1.30;99.90;;;-0.76;100.00;99852.84;5124825;27;20217;-80
2020/12/11 02:34:02;;;;;;;26.90;17.93;;;1.30;99.90;;;-0.86;100.00;99840.97;5130306;27;20228;-81
2020/12/11 02:36:47;;;;;;;30.93;20.70;;;1.30;99.90;;;-0.84;100.00;99838.44;5132516;27;20208;-80
2020/12/11 02:39:33;;;;;;;26.97;18.00;;;1.20;99.90;;;-0.81;100.00;99829.16;5130108;27;20213;-80
2020/12/11 02:42:18;;;;;;;26.03;15.73;;;1.20;99.90;;;-0.92;100.00;99843.47;5121111;28;20238;-81
2020/12/11 02:45:05;;;;;;;26.83;16.67;;;1.30;99.90;;;-0.98;100.00;99844.28;5123889;27;20201;-80
2020/12/11 02:47:50;;;;;;;25.97;18.27;;;1.20;99.90;;;-1.01;100.00;99848.50;5123188;27;20569;-81
2020/12/11 02:50:35;;;;;;;28.27;19.33;;;1.20;99.90;;;-1.07;100.00;99851.84;5124520;27;20237;-81
2020/12/11 02:53:20;;;;;;;30.30;18.17;;;1.20;99.90;;;-1.01;100.00;99840.88;5125039;27;20220;-80
2020/12/11 02:56:06;;;;;;;28.73;17.93;;;1.20;99.90;;;-1.02;100.00;99844.25;5127444;27;20204;-81
2020/12/11 02:58:52;;;;;;;25.83;16.13;;;1.20;99.90;;;-1.13;100.00;99832.34;5138386;27;20207;-82
2020/12/11 03:01:37;;;;;;;27.20;15.67;;;1.10;99.90;;;-0.89;100.00;99834.19;5136428;27;20288;-81
2020/12/11 03:04:22;;;;;;;26.53;16.33;;;1.10;99.90;;;-1.00;100.00;99829.91;5142027;27;20224;-81
2020/12/11 03:07:08;;;;;;;29.13;17.30;;;1.10;99.90;;;-1.03;100.00;99834.94;5136516;27;20242;-80
2020/12/11 03:09:53;;;;;;;29.47;17.67;;;1.10;99.90;;;-0.93;100.00;99834.16;5126430;27;20212;-80
2020/12/11 03:12:39;;;;;;;25.80;15.73;;;1.10;99.90;;;-1.00;100.00;99834.97;5142643;27;20216;-82
2020/12/11 03:15:25;;;;;;;28.80;16.43;;;1.10;99.90;;;-1.02;100.00;99839.19;5139444;27;20199;-80
2020/12/11 03:18:10;;;;;;;24.43;16.30;;;1.10;99.90;;;-1.12;100.00;99836.59;5132914;27;20305;-80
2020/12/11 03:20:55;;;;;;;28.40;18.30;;;1.10;99.90;;;-1.07;100.00;99836.63;5120606;27;20208;-79
2020/12/11 03:23:41;;;;;;;27.47;19.20;;;1.10;99.90;;;-1.08;100.00;99833.25;5132050;27;20220;-80
2020/12/11 03:26:26;;;;;;;27.50;17.33;;;1.10;99.90;;;-1.31;100.00;99833.09;5126401;27;20257;-79
2020/12/11 03:29:12;;;;;;;27.60;16.70;;;1.00;99.90;;;-1.14;100.00;99823.03;5134427;27;20503;-82
2020/12/11 03:31:57;;;;;;;27.57;16.00;;;1.00;99.90;;;-1.12;100.00;99815.44;5139231;27;20200;-81
2020/12/11 03:34:42;;;;;;;24.77;17.07;;;1.00;99.90;;;-1.02;100.00;99813.81;5130291;27;20366;-80
2020/12/11 03:37:27;;;;;;;25.40;17.77;;;1.00;99.90;;;-1.03;100.00;99799.41;5139263;27;20212;-80
2020/12/11 03:40:13;;;;;;;28.33;17.73;;;1.00;99.90;;;-0.97;100.00;99797.75;5140860;27;20200;-79
2020/12/11 03:42:58;;;;;;;27.43;17.00;;;1.00;99.90;;;-0.97;100.00;99789.31;5125897;27;20595;-79
2020/12/11 03:45:44;;;;;;;24.80;15.23;;;1.00;99.90;;;-1.00;100.00;99769.00;5131424;27;20732;-81
2020/12/11 03:48:30;;;;;;;25.87;17.27;;;1.00;99.90;;;-0.97;100.00;99769.84;5138178;27;20212;-80
2020/12/11 03:51:19;;;;;;;29.43;20.17;;;1.00;99.90;;;-1.06;100.00;99773.19;5128423;27;20249;-81
2020/12/11 03:54:05;;;;;;;28.63;17.17;;;1.00;99.90;;;-1.01;100.00;99762.22;5138886;27;20227;-81
2020/12/11 03:56:50;;;;;;;26.53;17.93;;;1.20;99.90;;;-1.08;100.00;99769.81;5129614;27;20285;-80
2020/12/11 03:59:35;;;;;;;29.03;17.47;;;1.00;99.90;;;-1.18;100.00;99755.38;5137877;27;20203;-79
2020/12/11 04:02:22;;;;;;;27.80;18.07;;;1.00;99.90;;;-1.18;100.00;99747.75;5124714;27;20663;-79
2020/12/11 04:05:07;;;;;;;28.23;18.60;;;0.90;99.90;;;-1.03;100.00;99741.91;5138826;27;20242;-81
2020/12/11 04:07:53;;;;;;;32.67;19.77;;;1.00;99.90;;;-1.07;100.00;99735.94;5121975;27;20196;-79
2020/12/11 04:10:38;;;;;;;30.30;19.80;;;1.00;99.90;;;-1.10;100.00;99730.84;5131020;27;20207;-79
2020/12/11 04:13:23;;;;;;;29.67;19.60;;;1.00;99.90;;;-1.07;100.00;99724.97;5120201;27;20372;-79
2020/12/11 04:16:10;;;;;;;26.60;16.87;;;0.90;99.90;;;-1.02;100.00;99722.44;5119220;27;20297;-80
2020/12/11 04:18:56;;;;;;;27.87;17.30;;;1.00;99.90;;;-0.98;100.00;99709.75;5124303;27;20316;-80
2020/12/11 04:21:48;;;;;;;32.60;22.00;;;1.00;99.90;;;-0.96;100.00;99710.63;5127476;27;20208;-79
2020/12/11 04:24:33;;;;;;;32.63;21.13;;;1.00;99.90;;;-0.85;100.00;99705.56;5130759;27;20227;-80
2020/12/11 04:27:19;;;;;;;30.03;19.33;;;1.00;99.90;;;-0.78;100.00;99709.00;5128815;27;20221;-80
2020/12/11 04:30:04;;;;;;;29.97;18.63;;;1.00;99.90;;;-0.85;100.00;99710.66;5141026;27;20211;-80
2020/12/11 04:32:49;;;;;;;32.07;21.00;;;1.00;99.90;;;-0.76;100.00;99687.81;5127301;28;20305;-80
2020/12/11 04:35:35;;;;;;;30.23;21.33;;;1.00;99.90;;;-0.71;100.00;99678.53;5135819;28;20200;-81
2020/12/11 04:38:20;;;;;;;29.10;19.07;;;1.10;99.90;;;-0.66;100.00;99665.00;5133621;28;20258;-81
2020/12/11 04:41:07;;;;;;;30.53;21.40;;;1.00;99.90;;;-0.64;100.00;99664.13;5124409;27;20261;-81
2020/12/11 04:43:55;;;;;;;27.53;16.80;;;1.00;99.90;;;-0.66;100.00;99663.31;5136413;28;20224;-82
2020/12/11 04:46:41;;;;;;;32.23;20.87;;;1.10;99.90;;;-0.62;100.00;99647.22;5126562;28;20204;-80
2020/12/11 04:49:26;;;;;;;33.53;20.53;;;1.20;99.90;;;-0.57;100.00;99637.06;5122670;28;20265;-80
2020/12/11 04:52:19;;;;;;;29.67;19.53;;;1.10;99.90;;;-0.59;100.00;99641.28;5136485;28;20253;-80
2020/12/11 04:55:05;;;;;;;29.87;19.40;;;1.10;99.90;;;-0.60;100.00;99621.84;5117581;28;20677;-79
2020/12/11 04:57:53;;;;;;;30.33;19.27;;;1.10;99.90;;;-0.62;100.00;99618.44;5123909;27;20219;-80
2020/12/11 05:00:38;;;;;;;31.80;19.90;;;1.20;99.90;;;-0.64;100.00;99615.88;5126907;27;20246;-80
2020/12/11 05:03:23;;;;;;;29.07;18.77;;;1.10;99.90;;;-0.62;100.00;99621.84;5123063;27;20231;-81
2020/12/11 05:06:09;;;;;;;30.30;22.07;;;1.20;99.90;;;-0.64;100.00;99617.59;5135176;27;20203;-81
2020/12/11 05:09:12;;;;;;;28.90;20.33;;;1.20;99.90;;;-0.58;100.00;99607.44;5132831;27;20215;-80
2020/12/11 05:11:57;;;;;;;29.53;19.17;;;1.40;99.90;;;-0.56;100.00;99604.06;5125114;27;20270;-81
2020/12/11 05:14:43;;;;;;;29.53;20.87;;;1.20;99.90;;;-0.61;100.00;99603.19;5126259;27;20282;-81
2020/12/11 05:17:31;;;;;;;28.17;21.13;;;1.20;99.90;;;-0.54;100.00;99597.25;5135123;27;20230;-81
2020/12/11 05:20:16;;;;;;;30.10;17.60;;;1.20;99.90;;;-0.19;100.00;99573.53;5128688;27;20762;-81
2020/12/11 05:23:08;;;;;;;26.13;15.83;;;1.20;99.90;;;-0.05;100.00;99578.56;5125978;27;20262;-81
2020/12/11 05:25:54;;;;;;;26.17;17.57;;;1.20;99.90;;;-0.05;100.00;99560.78;5123053;28;20250;-81
2020/12/11 05:28:45;;;;;;;28.20;19.80;;;1.30;99.90;;;0.01;100.00;99559.06;5132611;27;20591;-80
2020/12/11 05:31:31;;;;;;;28.53;18.17;;;1.30;99.90;;;0.04;100.00;99553.97;5143929;27;20200;-81
2020/12/11 05:34:16;;;;;;;30.03;19.60;;;1.30;99.90;;;0.06;100.00;99539.56;5123099;27;20737;-81
2020/12/11 05:37:02;;;;;;;28.50;21.67;;;1.30;99.90;;;0.10;100.00;99534.44;5129914;27;20253;-80
2020/12/11 05:39:48;;;;;;;24.70;14.27;;;1.40;99.90;;;0.12;100.00;99534.47;5125312;28;20278;-80
2020/12/11 05:42:34;;;;;;;27.87;19.47;;;1.50;99.90;;;0.16;100.00;99528.50;5136773;27;20224;-80
2020/12/11 05:45:19;;;;;;;24.60;17.03;;;1.50;99.90;;;0.18;100.00;99524.28;5142044;27;20758;-80
2020/12/11 05:48:06;;;;;;;27.93;18.90;;;1.50;99.90;;;0.18;100.00;99519.19;5139844;27;20204;-80
2020/12/11 05:50:52;;;;;;;29.30;18.93;;;1.50;99.90;;;0.21;100.00;99510.66;5136021;27;20284;-80
2020/12/11 05:53:38;;;;;;;28.00;18.67;;;1.60;99.90;;;0.21;100.00;99498.81;5130595;27;20279;-80
2020/12/11 05:56:24;;;;;;;24.80;17.43;;;1.60;99.90;;;0.22;100.00;99487.78;5131586;27;20743;-80
2020/12/11 05:59:12;;;;;;;26.17;18.97;;;1.70;99.90;;;0.21;100.00;99482.69;5137126;27;20709;-80
2020/12/11 06:01:58;;;;;;;25.30;16.90;;;1.70;99.90;;;0.15;100.00;99475.97;5152867;27;20188;-80
2020/12/11 06:04:46;;;;;;;28.50;19.57;;;1.80;99.90;;;0.16;100.00;99470.00;5150764;27;20212;-80
2020/12/11 06:07:35;;;;;;;28.93;17.40;;;1.80;99.90;;;0.17;100.00;99471.72;5121609;27;20627;-80
2020/12/11 06:10:22;;;;;;;26.77;17.87;;;2.00;99.90;;;0.27;100.00;99483.53;5124341;27;20216;-80
2020/12/11 06:13:08;;;;;;;25.90;17.30;;;1.70;99.90;;;0.39;100.00;99487.69;5113879;27;20728;-80
2020/12/11 06:15:56;;;;;;;25.53;18.93;;;1.80;99.90;;;0.44;100.00;99480.03;5128943;27;20208;-80
2020/12/11 06:18:44;;;;;;;23.03;15.67;;;1.90;99.90;;;0.39;100.00;99480.06;5116866;27;20224;-80
2020/12/11 06:21:31;;;;;;;25.17;20.00;;;1.90;99.90;;;0.40;100.00;99474.16;5121583;27;20211;-80
2020/12/11 06:24:30;;;;;;;25.67;17.27;;;1.90;99.90;;;0.41;100.00;99474.97;5119981;27;20762;-80
2020/12/11 06:27:15;;;;;;;24.50;17.80;;;1.90;99.90;;;0.45;100.00;99458.84;5137301;27;20212;-80
2020/12/11 06:30:29;;;;;;;24.07;16.23;;;2.00;99.90;;;0.42;100.00;99463.94;5122771;27;20188;-80
2020/12/11 06:33:30;;;;;;;25.00;18.17;;;2.00;99.90;;;0.46;100.00;99461.38;5117327;27;20232;-80
2020/12/11 06:36:16;;;;;;;25.73;17.33;;;2.00;99.90;;;0.31;100.00;99459.78;5116735;27;20238;-80
2020/12/11 06:39:01;;;;;;;25.37;16.00;;;2.10;99.90;;;0.07;100.00;99455.66;5125031;27;20231;-80
2020/12/11 06:41:46;;;;;;;25.83;16.30;;;2.00;99.90;;;0.03;100.00;99448.91;5118144;27;20564;-80
2020/12/11 06:44:32;;;;;;;25.37;17.13;;;2.30;99.90;;;0.11;100.00;99449.69;5119125;27;20717;-80
2020/12/11 06:47:19;;;;;;;27.80;18.43;;;2.10;99.90;;;0.05;100.00;99459.91;5135785;27;20208;-80
2020/12/11 06:50:07;;;;;;;24.80;16.43;;;2.10;99.90;;;0.15;100.00;99458.19;5120379;27;20200;-78
2020/12/11 06:52:52;;;;;;;26.13;17.30;;;2.00;99.90;;;0.17;100.00;99454.75;5132782;27;20245;-79
2020/12/11 06:55:49;;;;;;;23.03;14.70;;;2.30;99.90;;;0.11;100.00;99457.34;5131520;27;20293;-79
2020/12/11 06:58:34;;;;;;;24.10;16.50;;;2.00;99.90;;;0.13;100.00;99444.59;5121034;27;20220;-79
2020/12/11 07:01:19;;;;;;;24.27;15.90;;;2.10;99.90;;;0.08;100.00;99443.81;5132439;27;20272;-78
2020/12/11 07:04:05;;;;;;;25.23;15.27;;;2.10;99.90;;;0.10;100.00;99449.72;5125939;27;20231;-79
2020/12/11 07:06:53;;;;;;;26.57;16.53;;;2.10;99.90;;;0.23;100.00;99438.63;5120790;27;20208;-79
2020/12/11 07:09:39;;;;;;;27.00;16.90;;;2.00;99.90;;;0.24;100.00;99442.88;5130234;27;20197;-78
2020/12/11 07:12:25;;;;;;;22.97;15.33;;;2.10;99.90;;;0.29;100.00;99446.22;5118505;27;20587;-79
2020/12/11 07:15:16;;;;;;;26.97;17.00;;;2.10;99.90;;;0.26;100.00;99438.59;5132451;27;20208;-78
2020/12/11 07:18:01;;;;;;;25.10;17.90;;;2.10;99.90;;;0.29;100.00;99430.13;5131328;27;20212;-78
2020/12/11 07:20:51;;;;;;;25.63;16.83;;;2.20;99.90;;;0.24;100.00;99427.59;5130272;27;20230;-78
2020/12/11 07:23:37;;;;;;;25.97;16.90;;;2.10;99.90;;;0.28;100.00;99434.38;5120478;27;20225;-78
2020/12/11 07:26:22;;;;;;;26.70;17.17;;;2.20;99.90;;;0.41;100.00;99424.09;5118540;27;20286;-78
2020/12/11 07:29:10;;;;;;;24.97;16.27;;;2.20;99.90;;;0.47;100.00;99431.69;5126709;27;20599;-78
2020/12/11 07:31:57;;;;;;;22.90;16.07;;;2.20;99.90;;;0.50;100.00;99421.47;5130294;27;20559;-78
2020/12/11 07:34:43;;;;;;;24.83;16.60;;;2.20;99.90;;;0.46;100.00;99414.75;5131730;27;20239;-79
2020/12/11 07:37:28;;;;;;;25.33;19.27;;;2.20;99.90;;;0.51;100.00;99410.47;5137312;27;20270;-79
2020/12/11 07:40:15;;;;;;;21.07;14.33;;;2.30;99.90;;;0.59;100.00;99411.25;5130252;27;20617;-79
2020/12/11 07:43:02;;;;;;;27.97;15.50;;;2.30;99.90;;;0.58;100.00;99404.47;5129521;27;20239;-78
2020/12/11 07:45:48;;;;;;;23.27;15.83;;;2.30;99.90;;;0.55;100.00;99409.59;5127807;27;20293;-78
2020/12/11 07:48:33;;;;;;;21.47;14.90;;;2.40;99.90;;;0.57;100.00;99404.50;5130699;27;20506;-78
2020/12/11 07:51:19;;;;;;;22.83;15.73;;;2.40;99.90;;;0.63;100.00;99407.81;5132599;27;20211;-78
2020/12/11 07:54:04;;;;;;;28.10;16.50;;;2.40;99.90;;;0.67;100.00;99412.03;5133240;27;20216;-80
2020/12/11 07:56:50;;;;;;;24.27;15.43;;;2.40;99.90;;;0.71;100.00;99407.78;5130311;27;20203;-80
2020/12/11 07:59:35;;;;;;;23.43;15.60;;;2.50;99.90;;;0.69;100.00;99395.06;5133309;27;20227;-80
2020/12/11 08:02:21;;;;;;;23.03;15.90;;;2.50;99.90;;;0.67;100.00;99403.56;5131908;27;20272;-80
2020/12/11 08:05:08;;;;;;;23.60;16.00;;;2.60;99.90;;;0.71;100.00;99402.69;5129584;27;20212;-78
2020/12/11 08:07:54;;;;;;;21.40;14.97;;;2.60;99.90;;;0.76;100.00;99389.91;5129942;27;20239;-78
2020/12/11 08:10:43;;;;;;;20.03;12.90;;;2.60;99.90;;;0.77;100.00;99396.66;5120462;27;20306;-78
2020/12/11 08:13:29;;;;;;;22.20;15.87;;;2.70;99.90;;;0.81;100.00;99388.16;5129850;27;20236;-78
2020/12/11 08:16:22;;;;;;;22.60;15.13;;;2.70;99.90;;;0.88;100.00;99389.78;5126076;27;20881;-78
2020/12/11 08:19:10;;;;;;;21.07;14.23;;;2.70;99.90;;;0.92;100.00;99398.25;5120780;27;20729;-78
2020/12/11 08:21:55;;;;;;;23.63;17.27;;;2.70;99.90;;;0.96;100.00;99385.47;5124712;27;20215;-79
2020/12/11 08:24:41;;;;;;;23.33;14.87;;;2.80;99.90;;;0.97;100.00;99387.16;5121132;27;20221;-79
2020/12/11 08:27:28;;;;;;;22.20;15.07;;;2.80;99.90;;;0.99;100.00;99390.53;5129152;27;20212;-79
2020/12/11 08:30:15;;;;;;;21.67;16.57;;;2.90;99.90;;;1.02;100.00;99376.94;5124826;27;20230;-80
2020/12/11 08:33:10;;;;;;;20.10;14.23;;;2.90;99.90;;;1.05;100.00;99375.19;5119974;28;20269;-80
2020/12/11 08:35:56;;;;;;;20.90;14.37;;;3.00;99.90;;;1.03;100.00;99373.53;5117632;28;20568;-80
2020/12/11 08:38:41;;;;;;;22.60;15.63;;;2.90;99.90;;;1.08;100.00;99381.97;5122606;28;20343;-80
2020/12/11 08:41:30;;;;;;;21.47;14.80;;;3.00;99.90;;;1.09;100.00;99372.63;5128677;28;20208;-79
2020/12/11 08:44:25;;;;;;;22.03;15.73;;;3.00;99.90;;;1.11;100.00;99366.66;5126368;28;20591;-80
2020/12/11 08:50:30;;;;;;;21.77;13.60;;;3.00;99.90;;;1.09;100.00;99362.44;5139570;28;20257;-79
2020/12/11 08:53:17;;;;;;;23.60;14.23;;;3.10;99.90;;;1.00;100.00;99364.19;5122423;28;20243;-79
2020/12/11 08:56:05;;;;;;;22.97;16.23;;;3.10;99.90;;;0.86;100.00;99368.63;5120805;27;20199;-80
2020/12/11 08:58:51;;;;;;;23.63;15.83;;;3.10;99.90;;;0.85;100.00;99360.09;5135397;27;20625;-80
2020/12/11 09:01:36;;;;;;;23.30;16.33;;;3.10;99.90;;;0.85;100.00;99354.19;5121454;28;20208;-79
2020/12/11 09:04:22;;;;;;;21.80;14.53;;;3.10;99.90;;;0.80;100.00;99351.69;5115425;28;20223;-79
2020/12/11 09:07:07;;;;;;;25.53;16.40;;;3.10;99.90;;;0.72;100.00;99367.88;5128490;28;20201;-80
2020/12/11 09:09:53;;;;;;;24.27;15.73;;;3.10;99.90;;;0.65;100.00;99356.91;5119817;28;20204;-80
2020/12/11 09:12:38;;;;;;;25.20;16.27;;;3.10;99.90;;;0.67;100.00;99360.31;5134221;28;20211;-80
2020/12/11 09:15:24;;;;;;;23.60;16.83;;;3.20;99.90;;;0.72;100.00;99352.63;5127166;28;20244;-80
2020/12/11 09:18:09;;;;;;;25.83;15.23;;;3.10;99.90;;;0.79;100.00;99355.09;5138023;27;20293;-79
2020/12/11 09:20:56;;;;;;;23.70;16.87;;;3.20;99.90;;;0.88;100.00;99343.97;5128490;28;20211;-79
2020/12/11 09:23:41;;;;;;;22.33;15.37;;;3.10;99.90;;;0.97;100.00;99343.03;5129108;27;20229;-79
2020/12/11 09:26:28;;;;;;;20.70;15.03;;;3.20;99.90;;;1.04;100.00;99334.47;5131502;28;20740;-79
2020/12/11 09:29:15;;;;;;;22.27;14.93;;;3.20;99.90;;;1.15;100.00;99331.81;5127306;28;20568;-79
2020/12/11 09:32:04;;;;;;;23.43;15.47;;;3.10;99.90;;;1.26;100.00;99335.06;5126263;27;20799;-79
2020/12/11 09:34:49;;;;;;;20.87;14.30;;;3.20;99.90;;;1.35;100.00;99324.78;5126853;27;20228;-79
2020/12/11 09:37:35;;;;;;;20.57;15.10;;;3.20;99.90;;;1.45;100.00;99320.41;5136233;28;20200;-80
2020/12/11 09:40:27;;;;;;;21.53;16.63;;;3.20;99.90;;;1.53;100.00;99321.13;5132136;27;20212;-80
2020/12/11 09:46:38;;;;;;;19.87;14.27;;;3.20;99.90;;;1.62;100.00;99321.91;5065180;28;20292;-80
2020/12/11 09:49:27;;;;;;;20.17;13.90;;;3.20;99.90;;;1.64;100.00;99313.38;5131909;27;20206;-80
2020/12/11 09:52:24;;;;;;;20.40;14.70;;;3.30;99.90;;;1.67;100.00;99315.00;5122241;27;20270;-79
2020/12/11 09:55:11;;;;;;;21.73;15.50;;;3.30;99.90;;;1.70;100.00;99309.91;5134031;27;20200;-80
2020/12/11 09:57:56;;;;;;;23.57;16.40;;;3.30;99.90;;;1.71;100.00;99309.88;5130842;27;20568;-80
2020/12/11 10:00:44;;;;;;;21.67;14.83;;;3.40;99.90;;;1.77;100.00;99308.09;5120859;27;20299;-80
2020/12/11 10:03:34;;;;;;;19.60;13.50;;;3.40;99.90;;;1.79;100.00;99301.25;5132188;27;20228;-79
2020/12/11 10:06:24;;;;;;;19.03;12.47;;;3.40;99.90;;;1.85;100.00;99306.28;5131467;27;20192;-80
2020/12/11 10:09:09;;;;;;;19.60;12.87;;;3.50;99.90;;;1.92;100.00;99300.25;5144341;27;20210;-79
2020/12/11 10:11:56;;;;;;;22.07;15.40;;;3.60;99.90;;;1.99;100.00;99296.72;5146795;27;20219;-80
2020/12/11 10:14:43;;;;;;;21.67;15.53;;;3.60;99.90;;;2.04;100.00;99294.94;5137083;27;20232;-80
2020/12/11 10:17:28;;;;;;;20.93;12.70;;;3.70;99.90;;;2.12;100.00;99306.75;5128724;27;20330;-80
2020/12/11 10:20:18;;;;;;;19.87;14.40;;;3.80;99.90;;;2.16;100.00;99293.91;5122856;27;20204;-80
2020/12/11 10:23:03;;;;;;;19.60;15.07;;;3.80;99.90;;;2.22;100.00;99293.81;5130837;27;20720;-80
2020/12/11 10:25:48;;;;;;;18.90;12.93;;;3.90;99.90;;;2.23;100.00;99289.53;5128859;27;20208;-80
2020/12/11 10:28:35;;;;;;;19.97;14.43;;;4.00;99.90;;;2.26;100.00;99284.41;5135601;27;20204;-81
2020/12/11 10:31:20;;;;;;;20.77;14.33;;;4.10;99.90;;;2.36;100.00;99288.50;5136176;27;21780;-80
2020/12/11 10:34:05;;;;;;;19.27;13.33;;;4.10;99.90;;;2.32;100.00;99291.97;5138673;27;20262;-80
2020/12/11 10:36:50;;;;;;;22.53;14.67;;;4.20;99.90;;;2.29;100.00;99286.91;5135153;27;20261;-80
2020/12/11 10:39:36;;;;;;;20.80;15.93;;;4.30;99.90;;;2.10;100.00;99282.09;5126068;27;20227;-80
2020/12/11 10:42:21;;;;;;;23.70;15.43;;;4.30;99.90;;;1.89;100.00;99275.63;5119184;27;20231;-81
2020/12/11 10:45:07;;;;;;;22.07;14.93;;;4.40;99.90;;;1.79;100.00;99268.97;5123427;27;20327;-80
2020/12/11 10:47:52;;;;;;;21.23;15.00;;;4.40;99.90;;;1.76;100.00;99263.94;5124905;27;20545;-79
2020/12/11 10:50:38;;;;;;;23.07;17.70;;;4.50;99.90;;;1.75;100.00;99257.13;5120204;27;20201;-80
2020/12/11 10:53:23;;;;;;;20.90;14.70;;;4.50;99.90;;;1.78;100.00;99241.78;5115527;27;20216;-80
2020/12/11 10:56:10;;;;;;;24.20;14.83;;;4.50;99.90;;;1.85;100.00;99245.94;5117008;28;20200;-80
2020/12/11 10:58:55;;;;;;;20.53;15.30;;;4.50;99.90;;;1.88;100.00;99237.41;5121471;27;20223;-80
2020/12/11 11:01:41;;;;;;;23.43;16.40;;;4.50;99.90;;;1.96;100.00;99235.56;5131162;27;20762;-80
2020/12/11 11:04:27;;;;;;;21.50;17.13;;;4.50;99.90;;;1.94;100.00;99234.75;5131555;27;20251;-80
2020/12/11 11:07:16;;;;;;;24.10;16.17;;;4.50;99.90;;;1.97;100.00;99231.31;5130342;27;20277;-80
2020/12/11 11:10:13;;;;;;;23.17;15.87;;;4.50;99.90;;;1.99;100.00;99224.47;5119941;27;20201;-80
2020/12/11 11:13:14;;;;;;;21.97;14.77;;;4.50;99.90;;;2.06;100.00;99226.88;5122996;27;20215;-80
2020/12/11 11:15:59;;;;;;;21.67;17.37;;;4.50;99.90;;;2.14;100.00;99216.59;5121084;27;20950;-80
2020/12/11 11:18:50;;;;;;;22.03;15.60;;;4.50;99.90;;;2.18;100.00;99214.81;5135569;27;20223;-80
2020/12/11 11:25:01;;;;;;;24.00;15.17;;;4.50;99.90;;;2.20;100.00;99207.94;5094237;27;20228;-80
2020/12/11 11:27:50;;;;;;;22.77;17.13;;;4.50;99.90;;;2.24;100.00;99199.38;5122806;27;20199;-80
2020/12/11 11:30:36;;;;;;;22.67;13.80;;;4.50;99.90;;;2.19;100.00;99202.03;5137505;27;20204;-80
2020/12/11 11:33:21;;;;;;;24.50;18.60;;;4.50;99.90;;;2.15;100.00;99185.09;5156423;27;20227;-80
2020/12/11 11:36:07;;;;;;;24.57;16.70;;;4.60;99.90;;;2.16;100.00;99194.44;5150545;27;20196;-80
2020/12/11 11:38:52;;;;;;;22.10;15.07;;;4.60;99.90;;;2.12;100.00;99184.31;5135352;27;20293;-80